sensor_id;sensor_type;location;lat;lon;timestamp;P1;durP1;ratioP1;P2;durP2;ratioP2
47749;SDS011;49810;48.160;10.812;2023-02-01T00:01:57;19.17;;;9.13;;
47749;SDS011;49810;48.160;10.812;2023-02-01T00:04:24;19.60;;;9.90;;
47749;SDS011;49810;48.160;10.812;2023-02-01T00:06:52;18.25;;;9.45;;
47749;SDS011;49810;48.160;10.812;2023-02-01T00:09:20;16.13;;;8.75;;
47749;SDS011;49810;48.160;10.812;2023-02-01T00:11:48;17.10;;;8.52;;
47749;SDS011;49810;48.160;10.812;2023-02-01T00:14:17;21.35;;;9.82;;
47749;SDS011;49810;48.160;10.812;2023-02-01T00:16:45;17.80;;;9.05;;
47749;SDS011;49810;48.160;10.812;2023-02-01T00:19:13;18.02;;;9.57;;
47749;SDS011;49810;48.160;10.812;2023-02-01T00:21:41;19.63;;;9.80;;
47749;SDS011;49810;48.160;10.812;2023-02-01T00:24:11;17.20;;;9.27;;
47749;SDS011;49810;48.160;10.812;2023-02-01T00:26:39;17.55;;;9.63;;
47749;SDS011;49810;48.160;10.812;2023-02-01T00:29:09;17.38;;;9.65;;
47749;SDS011;49810;48.160;10.812;2023-02-01T00:31:39;19.45;;;9.07;;
47749;SDS011;49810;48.160;10.812;2023-02-01T00:34:07;19.15;;;9.40;;
47749;SDS011;49810;48.160;10.812;2023-02-01T00:36:36;20.23;;;10.15;;
47749;SDS011;49810;48.160;10.812;2023-02-01T00:39:04;18.67;;;10.25;;
47749;SDS011;49810;48.160;10.812;2023-02-01T00:41:32;20.42;;;10.27;;
47749;SDS011;49810;48.160;10.812;2023-02-01T00:44:00;21.90;;;11.63;;
47749;SDS011;49810;48.160;10.812;2023-02-01T00:46:29;21.52;;;12.48;;
47749;SDS011;49810;48.160;10.812;2023-02-01T00:48:58;22.70;;;12.77;;
47749;SDS011;49810;48.160;10.812;2023-02-01T00:51:26;22.33;;;11.80;;
47749;SDS011;49810;48.160;10.812;2023-02-01T00:53:54;22.55;;;12.60;;
47749;SDS011;49810;48.160;10.812;2023-02-01T00:56:22;23.58;;;12.90;;
47749;SDS011;49810;48.160;10.812;2023-02-01T00:58:50;27.58;;;13.77;;
47749;SDS011;49810;48.160;10.812;2023-02-01T01:01:18;27.77;;;13.95;;
47749;SDS011;49810;48.160;10.812;2023-02-01T01:03:47;26.52;;;13.18;;
47749;SDS011;49810;48.160;10.812;2023-02-01T01:06:19;25.45;;;13.40;;
47749;SDS011;49810;48.160;10.812;2023-02-01T01:08:48;24.60;;;13.57;;
47749;SDS011;49810;48.160;10.812;2023-02-01T01:11:17;23.48;;;13.52;;
47749;SDS011;49810;48.160;10.812;2023-02-01T01:13:46;25.65;;;13.65;;
47749;SDS011;49810;48.160;10.812;2023-02-01T01:16:13;23.63;;;13.35;;
47749;SDS011;49810;48.160;10.812;2023-02-01T01:18:42;26.95;;;13.63;;
47749;SDS011;49810;48.160;10.812;2023-02-01T01:21:11;24.77;;;13.63;;
47749;SDS011;49810;48.160;10.812;2023-02-01T01:23:41;24.23;;;13.70;;
47749;SDS011;49810;48.160;10.812;2023-02-01T01:26:10;23.15;;;12.82;;
47749;SDS011;49810;48.160;10.812;2023-02-01T01:28:38;23.88;;;13.63;;
47749;SDS011;49810;48.160;10.812;2023-02-01T01:31:07;24.27;;;13.23;;
47749;SDS011;49810;48.160;10.812;2023-02-01T01:33:35;29.25;;;13.75;;
47749;SDS011;49810;48.160;10.812;2023-02-01T01:36:04;24.70;;;12.85;;
47749;SDS011;49810;48.160;10.812;2023-02-01T01:38:32;26.08;;;12.77;;
47749;SDS011;49810;48.160;10.812;2023-02-01T01:41:01;24.88;;;12.07;;
47749;SDS011;49810;48.160;10.812;2023-02-01T01:43:44;23.77;;;12.65;;
47749;SDS011;49810;48.160;10.812;2023-02-01T01:46:15;29.17;;;12.70;;
47749;SDS011;49810;48.160;10.812;2023-02-01T01:48:43;22.02;;;12.73;;
47749;SDS011;49810;48.160;10.812;2023-02-01T01:51:11;21.63;;;11.77;;
47749;SDS011;49810;48.160;10.812;2023-02-01T01:53:42;23.20;;;12.40;;
47749;SDS011;49810;48.160;10.812;2023-02-01T01:56:12;22.02;;;12.07;;
47749;SDS011;49810;48.160;10.812;2023-02-01T01:58:40;20.92;;;11.80;;
47749;SDS011;49810;48.160;10.812;2023-02-01T02:01:09;23.58;;;12.27;;
47749;SDS011;49810;48.160;10.812;2023-02-01T02:03:38;23.17;;;12.25;;
47749;SDS011;49810;48.160;10.812;2023-02-01T02:06:08;21.27;;;11.63;;
47749;SDS011;49810;48.160;10.812;2023-02-01T02:08:40;21.58;;;10.95;;
47749;SDS011;49810;48.160;10.812;2023-02-01T02:11:09;21.05;;;10.98;;
47749;SDS011;49810;48.160;10.812;2023-02-01T02:13:40;18.98;;;10.68;;
47749;SDS011;49810;48.160;10.812;2023-02-01T02:18:59;19.00;;;10.15;;
47749;SDS011;49810;48.160;10.812;2023-02-01T02:21:37;21.45;;;10.68;;
47749;SDS011;49810;48.160;10.812;2023-02-01T02:24:20;21.48;;;10.93;;
47749;SDS011;49810;48.160;10.812;2023-02-01T02:27:15;20.38;;;11.00;;
47749;SDS011;49810;48.160;10.812;2023-02-01T02:35:50;18.88;;;9.23;;
47749;SDS011;49810;48.160;10.812;2023-02-01T02:38:24;18.15;;;9.13;;
47749;SDS011;49810;48.160;10.812;2023-02-01T02:40:58;17.58;;;8.40;;
47749;SDS011;49810;48.160;10.812;2023-02-01T02:43:31;18.38;;;9.25;;
47749;SDS011;49810;48.160;10.812;2023-02-01T02:46:21;16.98;;;9.15;;
47749;SDS011;49810;48.160;10.812;2023-02-01T02:49:09;17.70;;;8.43;;
47749;SDS011;49810;48.160;10.812;2023-02-01T02:51:42;16.30;;;8.57;;
47749;SDS011;49810;48.160;10.812;2023-02-01T02:54:29;15.23;;;8.20;;
47749;SDS011;49810;48.160;10.812;2023-02-01T02:57:16;18.08;;;8.50;;
47749;SDS011;49810;48.160;10.812;2023-02-01T03:00:03;14.90;;;8.48;;
47749;SDS011;49810;48.160;10.812;2023-02-01T03:02:50;14.65;;;7.97;;
47749;SDS011;49810;48.160;10.812;2023-02-01T03:05:36;15.57;;;8.38;;
47749;SDS011;49810;48.160;10.812;2023-02-01T03:08:11;13.93;;;8.55;;
47749;SDS011;49810;48.160;10.812;2023-02-01T03:10:44;13.57;;;7.78;;
47749;SDS011;49810;48.160;10.812;2023-02-01T03:13:16;14.70;;;8.25;;
47749;SDS011;49810;48.160;10.812;2023-02-01T03:15:48;16.67;;;8.50;;
47749;SDS011;49810;48.160;10.812;2023-02-01T03:18:19;15.20;;;8.25;;
47749;SDS011;49810;48.160;10.812;2023-02-01T03:20:49;15.25;;;7.57;;
47749;SDS011;49810;48.160;10.812;2023-02-01T03:23:21;16.25;;;8.00;;
47749;SDS011;49810;48.160;10.812;2023-02-01T03:25:50;15.80;;;8.05;;
47749;SDS011;49810;48.160;10.812;2023-02-01T03:28:20;16.77;;;9.07;;
47749;SDS011;49810;48.160;10.812;2023-02-01T03:30:50;15.50;;;7.75;;
47749;SDS011;49810;48.160;10.812;2023-02-01T03:33:19;12.25;;;7.28;;
47749;SDS011;49810;48.160;10.812;2023-02-01T03:35:54;14.88;;;7.72;;
47749;SDS011;49810;48.160;10.812;2023-02-01T03:38:25;16.35;;;8.13;;
47749;SDS011;49810;48.160;10.812;2023-02-01T03:40:56;15.45;;;8.02;;
47749;SDS011;49810;48.160;10.812;2023-02-01T03:43:25;15.85;;;7.95;;
47749;SDS011;49810;48.160;10.812;2023-02-01T03:45:57;15.82;;;9.07;;
47749;SDS011;49810;48.160;10.812;2023-02-01T03:48:27;15.55;;;8.68;;
47749;SDS011;49810;48.160;10.812;2023-02-01T03:50:57;15.88;;;8.85;;
47749;SDS011;49810;48.160;10.812;2023-02-01T03:53:28;13.93;;;8.10;;
47749;SDS011;49810;48.160;10.812;2023-02-01T03:55:56;14.00;;;7.80;;
47749;SDS011;49810;48.160;10.812;2023-02-01T03:58:24;15.55;;;8.15;;
47749;SDS011;49810;48.160;10.812;2023-02-01T04:00:53;16.63;;;7.78;;
47749;SDS011;49810;48.160;10.812;2023-02-01T04:03:22;14.85;;;7.82;;
47749;SDS011;49810;48.160;10.812;2023-02-01T04:05:51;16.85;;;8.48;;
47749;SDS011;49810;48.160;10.812;2023-02-01T04:08:24;14.52;;;8.00;;
47749;SDS011;49810;48.160;10.812;2023-02-01T04:10:53;13.52;;;7.80;;
47749;SDS011;49810;48.160;10.812;2023-02-01T04:13:21;13.85;;;8.25;;
47749;SDS011;49810;48.160;10.812;2023-02-01T04:15:49;16.48;;;7.57;;
47749;SDS011;49810;48.160;10.812;2023-02-01T04:18:17;15.48;;;8.23;;
47749;SDS011;49810;48.160;10.812;2023-02-01T04:20:45;12.52;;;7.50;;
47749;SDS011;49810;48.160;10.812;2023-02-01T04:23:12;12.82;;;7.22;;
47749;SDS011;49810;48.160;10.812;2023-02-01T04:25:42;11.65;;;7.03;;
47749;SDS011;49810;48.160;10.812;2023-02-01T04:28:11;13.43;;;6.82;;
47749;SDS011;49810;48.160;10.812;2023-02-01T04:30:39;14.77;;;7.38;;
47749;SDS011;49810;48.160;10.812;2023-02-01T04:33:07;13.75;;;7.20;;
47749;SDS011;49810;48.160;10.812;2023-02-01T04:35:35;13.77;;;7.43;;
47749;SDS011;49810;48.160;10.812;2023-02-01T04:38:02;15.73;;;8.15;;
47749;SDS011;49810;48.160;10.812;2023-02-01T04:40:30;13.52;;;7.75;;
47749;SDS011;49810;48.160;10.812;2023-02-01T04:42:58;15.50;;;8.50;;
47749;SDS011;49810;48.160;10.812;2023-02-01T04:45:29;11.95;;;7.00;;
47749;SDS011;49810;48.160;10.812;2023-02-01T04:47:56;13.40;;;7.43;;
47749;SDS011;49810;48.160;10.812;2023-02-01T04:50:24;14.63;;;7.68;;
47749;SDS011;49810;48.160;10.812;2023-02-01T04:52:53;13.60;;;7.95;;
47749;SDS011;49810;48.160;10.812;2023-02-01T04:55:20;13.85;;;7.88;;
47749;SDS011;49810;48.160;10.812;2023-02-01T04:57:48;13.93;;;7.55;;
47749;SDS011;49810;48.160;10.812;2023-02-01T05:00:17;13.93;;;7.00;;
47749;SDS011;49810;48.160;10.812;2023-02-01T05:02:46;15.35;;;8.20;;
47749;SDS011;49810;48.160;10.812;2023-02-01T05:05:14;13.02;;;7.20;;
47749;SDS011;49810;48.160;10.812;2023-02-01T05:07:41;15.52;;;7.85;;
47749;SDS011;49810;48.160;10.812;2023-02-01T05:10:10;12.00;;;7.43;;
47749;SDS011;49810;48.160;10.812;2023-02-01T05:12:38;12.45;;;7.13;;
47749;SDS011;49810;48.160;10.812;2023-02-01T05:15:23;14.82;;;7.80;;
47749;SDS011;49810;48.160;10.812;2023-02-01T05:17:53;16.63;;;8.00;;
47749;SDS011;49810;48.160;10.812;2023-02-01T05:20:21;14.55;;;8.05;;
47749;SDS011;49810;48.160;10.812;2023-02-01T05:22:49;14.80;;;7.95;;
47749;SDS011;49810;48.160;10.812;2023-02-01T05:25:17;11.35;;;6.95;;
47749;SDS011;49810;48.160;10.812;2023-02-01T05:27:45;12.60;;;7.65;;
47749;SDS011;49810;48.160;10.812;2023-02-01T05:30:13;14.30;;;7.97;;
47749;SDS011;49810;48.160;10.812;2023-02-01T05:32:41;13.43;;;7.97;;
47749;SDS011;49810;48.160;10.812;2023-02-01T05:35:11;14.25;;;7.75;;
47749;SDS011;49810;48.160;10.812;2023-02-01T05:37:39;16.48;;;8.00;;
47749;SDS011;49810;48.160;10.812;2023-02-01T05:40:07;16.00;;;8.65;;
47749;SDS011;49810;48.160;10.812;2023-02-01T05:42:35;13.52;;;7.97;;
47749;SDS011;49810;48.160;10.812;2023-02-01T05:45:04;15.82;;;8.57;;
47749;SDS011;49810;48.160;10.812;2023-02-01T05:47:34;17.25;;;8.63;;
47749;SDS011;49810;48.160;10.812;2023-02-01T05:50:02;14.20;;;8.25;;
47749;SDS011;49810;48.160;10.812;2023-02-01T05:52:31;13.35;;;8.02;;
47749;SDS011;49810;48.160;10.812;2023-02-01T05:54:59;14.90;;;8.18;;
47749;SDS011;49810;48.160;10.812;2023-02-01T05:57:27;14.93;;;8.45;;
47749;SDS011;49810;48.160;10.812;2023-02-01T05:59:55;17.73;;;9.73;;
47749;SDS011;49810;48.160;10.812;2023-02-01T06:02:25;17.20;;;8.90;;
47749;SDS011;49810;48.160;10.812;2023-02-01T06:04:52;15.35;;;8.95;;
47749;SDS011;49810;48.160;10.812;2023-02-01T06:07:21;17.27;;;8.70;;
47749;SDS011;49810;48.160;10.812;2023-02-01T06:09:51;16.80;;;9.75;;
47749;SDS011;49810;48.160;10.812;2023-02-01T06:12:19;16.60;;;8.80;;
47749;SDS011;49810;48.160;10.812;2023-02-01T06:14:47;21.15;;;8.80;;
47749;SDS011;49810;48.160;10.812;2023-02-01T06:17:14;17.67;;;8.73;;
47749;SDS011;49810;48.160;10.812;2023-02-01T06:19:42;16.92;;;9.02;;
47749;SDS011;49810;48.160;10.812;2023-02-01T06:22:11;15.98;;;9.65;;
47749;SDS011;49810;48.160;10.812;2023-02-01T06:24:39;18.63;;;8.80;;
47749;SDS011;49810;48.160;10.812;2023-02-01T06:27:08;15.25;;;8.70;;
47749;SDS011;49810;48.160;10.812;2023-02-01T06:29:36;16.27;;;8.57;;
47749;SDS011;49810;48.160;10.812;2023-02-01T06:32:04;17.08;;;8.63;;
47749;SDS011;49810;48.160;10.812;2023-02-01T06:34:32;18.63;;;10.18;;
47749;SDS011;49810;48.160;10.812;2023-02-01T06:37:01;15.18;;;8.48;;
47749;SDS011;49810;48.160;10.812;2023-02-01T06:39:29;13.63;;;8.13;;
47749;SDS011;49810;48.160;10.812;2023-02-01T06:41:57;14.65;;;8.02;;
47749;SDS011;49810;48.160;10.812;2023-02-01T06:44:26;15.68;;;9.13;;
47749;SDS011;49810;48.160;10.812;2023-02-01T06:46:54;16.60;;;8.68;;
47749;SDS011;49810;48.160;10.812;2023-02-01T06:49:22;17.85;;;9.15;;
47749;SDS011;49810;48.160;10.812;2023-02-01T06:51:50;17.20;;;8.40;;
47749;SDS011;49810;48.160;10.812;2023-02-01T06:54:18;12.82;;;7.72;;
47749;SDS011;49810;48.160;10.812;2023-02-01T06:56:46;15.77;;;8.32;;
47749;SDS011;49810;48.160;10.812;2023-02-01T06:59:14;14.95;;;8.60;;
47749;SDS011;49810;48.160;10.812;2023-02-01T07:01:44;13.13;;;7.38;;
47749;SDS011;49810;48.160;10.812;2023-02-01T07:04:12;13.93;;;7.30;;
47749;SDS011;49810;48.160;10.812;2023-02-01T07:06:40;11.77;;;6.97;;
47749;SDS011;49810;48.160;10.812;2023-02-01T07:09:08;15.43;;;7.35;;
47749;SDS011;49810;48.160;10.812;2023-02-01T07:11:36;13.02;;;7.22;;
47749;SDS011;49810;48.160;10.812;2023-02-01T07:14:07;13.88;;;7.28;;
47749;SDS011;49810;48.160;10.812;2023-02-01T07:16:35;14.23;;;7.15;;
47749;SDS011;49810;48.160;10.812;2023-02-01T07:19:04;14.10;;;6.88;;
47749;SDS011;49810;48.160;10.812;2023-02-01T07:21:33;12.00;;;6.63;;
47749;SDS011;49810;48.160;10.812;2023-02-01T07:24:01;13.25;;;6.95;;
47749;SDS011;49810;48.160;10.812;2023-02-01T07:26:28;14.32;;;7.32;;
47749;SDS011;49810;48.160;10.812;2023-02-01T07:28:56;14.40;;;7.35;;
47749;SDS011;49810;48.160;10.812;2023-02-01T07:31:24;13.80;;;7.72;;
47749;SDS011;49810;48.160;10.812;2023-02-01T07:33:53;15.75;;;8.40;;
47749;SDS011;49810;48.160;10.812;2023-02-01T07:36:24;13.77;;;7.57;;
47749;SDS011;49810;48.160;10.812;2023-02-01T07:38:52;15.82;;;8.27;;
47749;SDS011;49810;48.160;10.812;2023-02-01T07:41:22;15.32;;;7.95;;
47749;SDS011;49810;48.160;10.812;2023-02-01T07:43:52;17.15;;;8.13;;
47749;SDS011;49810;48.160;10.812;2023-02-01T07:46:20;18.27;;;9.77;;
47749;SDS011;49810;48.160;10.812;2023-02-01T07:48:48;16.10;;;8.32;;
47749;SDS011;49810;48.160;10.812;2023-02-01T07:51:16;13.55;;;7.50;;
47749;SDS011;49810;48.160;10.812;2023-02-01T07:53:45;15.55;;;6.88;;
47749;SDS011;49810;48.160;10.812;2023-02-01T07:56:14;12.38;;;7.00;;
47749;SDS011;49810;48.160;10.812;2023-02-01T07:58:43;11.82;;;6.80;;
47749;SDS011;49810;48.160;10.812;2023-02-01T08:01:13;11.73;;;6.85;;
47749;SDS011;49810;48.160;10.812;2023-02-01T08:03:46;12.48;;;6.97;;
47749;SDS011;49810;48.160;10.812;2023-02-01T08:06:14;12.95;;;6.95;;
47749;SDS011;49810;48.160;10.812;2023-02-01T08:08:42;14.38;;;6.80;;
47749;SDS011;49810;48.160;10.812;2023-02-01T08:11:13;13.18;;;7.35;;
47749;SDS011;49810;48.160;10.812;2023-02-01T08:13:41;13.60;;;7.10;;
47749;SDS011;49810;48.160;10.812;2023-02-01T08:16:09;14.07;;;7.47;;
47749;SDS011;49810;48.160;10.812;2023-02-01T08:18:38;15.70;;;7.38;;
47749;SDS011;49810;48.160;10.812;2023-02-01T08:21:06;13.68;;;7.50;;
47749;SDS011;49810;48.160;10.812;2023-02-01T08:23:36;12.23;;;7.00;;
47749;SDS011;49810;48.160;10.812;2023-02-01T08:26:05;12.73;;;7.35;;
47749;SDS011;49810;48.160;10.812;2023-02-01T08:28:34;14.88;;;7.82;;
47749;SDS011;49810;48.160;10.812;2023-02-01T08:31:04;16.65;;;8.48;;
47749;SDS011;49810;48.160;10.812;2023-02-01T08:33:32;12.02;;;6.72;;
47749;SDS011;49810;48.160;10.812;2023-02-01T08:36:00;14.85;;;7.90;;
47749;SDS011;49810;48.160;10.812;2023-02-01T08:38:28;10.80;;;6.60;;
47749;SDS011;49810;48.160;10.812;2023-02-01T08:40:56;12.77;;;6.80;;
47749;SDS011;49810;48.160;10.812;2023-02-01T08:43:24;9.88;;;5.90;;
47749;SDS011;49810;48.160;10.812;2023-02-01T08:45:55;12.25;;;7.10;;
47749;SDS011;49810;48.160;10.812;2023-02-01T08:48:23;13.68;;;6.40;;
47749;SDS011;49810;48.160;10.812;2023-02-01T08:50:51;10.15;;;5.30;;
47749;SDS011;49810;48.160;10.812;2023-02-01T08:53:19;9.90;;;6.15;;
47749;SDS011;49810;48.160;10.812;2023-02-01T08:55:46;11.02;;;5.60;;
47749;SDS011;49810;48.160;10.812;2023-02-01T08:58:15;10.55;;;5.70;;
47749;SDS011;49810;48.160;10.812;2023-02-01T09:00:43;10.82;;;6.28;;
47749;SDS011;49810;48.160;10.812;2023-02-01T09:03:13;11.60;;;4.90;;
47749;SDS011;49810;48.160;10.812;2023-02-01T09:05:41;9.70;;;5.53;;
47749;SDS011;49810;48.160;10.812;2023-02-01T09:08:15;9.30;;;4.90;;
47749;SDS011;49810;48.160;10.812;2023-02-01T09:10:45;9.95;;;5.38;;
47749;SDS011;49810;48.160;10.812;2023-02-01T09:13:13;8.13;;;4.70;;
47749;SDS011;49810;48.160;10.812;2023-02-01T09:15:41;13.00;;;5.25;;
47749;SDS011;49810;48.160;10.812;2023-02-01T09:18:08;8.13;;;5.30;;
47749;SDS011;49810;48.160;10.812;2023-02-01T09:20:38;7.47;;;4.22;;
47749;SDS011;49810;48.160;10.812;2023-02-01T09:23:06;8.70;;;4.75;;
47749;SDS011;49810;48.160;10.812;2023-02-01T09:25:36;9.93;;;4.72;;
47749;SDS011;49810;48.160;10.812;2023-02-01T09:28:04;9.80;;;5.75;;
47749;SDS011;49810;48.160;10.812;2023-02-01T09:30:32;11.02;;;5.20;;
47749;SDS011;49810;48.160;10.812;2023-02-01T09:33:00;9.27;;;4.15;;
47749;SDS011;49810;48.160;10.812;2023-02-01T09:35:28;8.82;;;5.53;;
47749;SDS011;49810;48.160;10.812;2023-02-01T09:37:57;10.00;;;5.18;;
47749;SDS011;49810;48.160;10.812;2023-02-01T09:40:25;8.45;;;5.13;;
47749;SDS011;49810;48.160;10.812;2023-02-01T09:43:03;8.25;;;4.82;;
47749;SDS011;49810;48.160;10.812;2023-02-01T09:45:35;13.45;;;4.82;;
47749;SDS011;49810;48.160;10.812;2023-02-01T09:48:09;9.60;;;4.22;;
47749;SDS011;49810;48.160;10.812;2023-02-01T09:50:39;8.52;;;4.22;;
47749;SDS011;49810;48.160;10.812;2023-02-01T09:53:11;9.13;;;5.13;;
47749;SDS011;49810;48.160;10.812;2023-02-01T09:55:42;8.48;;;3.97;;
47749;SDS011;49810;48.160;10.812;2023-02-01T09:58:12;10.48;;;5.25;;
47749;SDS011;49810;48.160;10.812;2023-02-01T10:00:46;6.97;;;4.10;;
47749;SDS011;49810;48.160;10.812;2023-02-01T10:03:18;10.68;;;5.10;;
47749;SDS011;49810;48.160;10.812;2023-02-01T10:05:54;9.07;;;4.72;;
47749;SDS011;49810;48.160;10.812;2023-02-01T10:08:28;8.02;;;4.15;;
47749;SDS011;49810;48.160;10.812;2023-02-01T10:10:58;6.88;;;4.32;;
47749;SDS011;49810;48.160;10.812;2023-02-01T10:13:44;8.55;;;5.03;;
47749;SDS011;49810;48.160;10.812;2023-02-01T10:16:17;7.88;;;4.57;;
47749;SDS011;49810;48.160;10.812;2023-02-01T10:18:55;9.07;;;4.47;;
47749;SDS011;49810;48.160;10.812;2023-02-01T10:21:28;9.63;;;5.00;;
47749;SDS011;49810;48.160;10.812;2023-02-01T10:24:05;12.00;;;5.68;;
47749;SDS011;49810;48.160;10.812;2023-02-01T10:26:44;8.93;;;4.93;;
47749;SDS011;49810;48.160;10.812;2023-02-01T10:29:14;9.15;;;4.88;;
47749;SDS011;49810;48.160;10.812;2023-02-01T10:31:43;10.30;;;6.03;;
47749;SDS011;49810;48.160;10.812;2023-02-01T10:34:15;8.75;;;4.97;;
47749;SDS011;49810;48.160;10.812;2023-02-01T10:36:49;9.52;;;5.13;;
47749;SDS011;49810;48.160;10.812;2023-02-01T10:41:48;9.85;;;5.38;;
47749;SDS011;49810;48.160;10.812;2023-02-01T10:44:16;11.10;;;5.43;;
47749;SDS011;49810;48.160;10.812;2023-02-01T10:46:45;10.38;;;4.95;;
47749;SDS011;49810;48.160;10.812;2023-02-01T10:49:15;9.40;;;5.05;;
47749;SDS011;49810;48.160;10.812;2023-02-01T10:51:45;9.63;;;5.47;;
47749;SDS011;49810;48.160;10.812;2023-02-01T10:54:16;10.38;;;5.13;;
47749;SDS011;49810;48.160;10.812;2023-02-01T10:56:44;12.60;;;5.43;;
47749;SDS011;49810;48.160;10.812;2023-02-01T10:59:16;10.25;;;5.47;;
47749;SDS011;49810;48.160;10.812;2023-02-01T11:01:45;10.98;;;5.80;;
47749;SDS011;49810;48.160;10.812;2023-02-01T11:04:13;9.57;;;6.05;;
47749;SDS011;49810;48.160;10.812;2023-02-01T11:06:42;10.55;;;6.10;;
47749;SDS011;49810;48.160;10.812;2023-02-01T11:09:14;10.90;;;5.70;;
47749;SDS011;49810;48.160;10.812;2023-02-01T11:11:53;12.20;;;6.00;;
47749;SDS011;49810;48.160;10.812;2023-02-01T11:14:27;10.05;;;5.88;;
47749;SDS011;49810;48.160;10.812;2023-02-01T11:16:57;11.45;;;6.00;;
47749;SDS011;49810;48.160;10.812;2023-02-01T11:19:27;11.15;;;5.75;;
47749;SDS011;49810;48.160;10.812;2023-02-01T11:21:55;10.20;;;5.35;;
47749;SDS011;49810;48.160;10.812;2023-02-01T11:24:24;9.27;;;5.13;;
47749;SDS011;49810;48.160;10.812;2023-02-01T11:26:54;13.25;;;6.13;;
47749;SDS011;49810;48.160;10.812;2023-02-01T11:29:22;9.85;;;5.60;;
47749;SDS011;49810;48.160;10.812;2023-02-01T11:31:58;8.13;;;4.77;;
47749;SDS011;49810;48.160;10.812;2023-02-01T11:34:36;10.13;;;5.72;;
47749;SDS011;49810;48.160;10.812;2023-02-01T11:37:09;10.40;;;5.57;;
47749;SDS011;49810;48.160;10.812;2023-02-01T11:39:40;10.60;;;5.82;;
47749;SDS011;49810;48.160;10.812;2023-02-01T11:42:12;11.30;;;6.15;;
47749;SDS011;49810;48.160;10.812;2023-02-01T11:44:41;10.77;;;5.95;;
47749;SDS011;49810;48.160;10.812;2023-02-01T11:47:19;11.70;;;6.22;;
47749;SDS011;49810;48.160;10.812;2023-02-01T11:49:47;11.20;;;5.65;;
47749;SDS011;49810;48.160;10.812;2023-02-01T11:52:16;12.02;;;5.40;;
47749;SDS011;49810;48.160;10.812;2023-02-01T11:54:49;14.77;;;5.93;;
47749;SDS011;49810;48.160;10.812;2023-02-01T11:57:26;14.38;;;5.90;;
47749;SDS011;49810;48.160;10.812;2023-02-01T11:59:59;17.73;;;7.28;;
47749;SDS011;49810;48.160;10.812;2023-02-01T12:02:49;11.88;;;5.68;;
47749;SDS011;49810;48.160;10.812;2023-02-01T12:07:54;8.93;;;4.65;;
47749;SDS011;49810;48.160;10.812;2023-02-01T12:10:27;12.73;;;4.90;;
47749;SDS011;49810;48.160;10.812;2023-02-01T12:13:01;10.38;;;4.90;;
47749;SDS011;49810;48.160;10.812;2023-02-01T12:15:51;10.75;;;4.28;;
47749;SDS011;49810;48.160;10.812;2023-02-01T12:21:17;10.60;;;5.47;;
47749;SDS011;49810;48.160;10.812;2023-02-01T12:23:54;23.10;;;11.18;;
47749;SDS011;49810;48.160;10.812;2023-02-01T12:31:59;12.48;;;5.43;;
47749;SDS011;49810;48.160;10.812;2023-02-01T12:34:38;11.02;;;5.15;;
47749;SDS011;49810;48.160;10.812;2023-02-01T12:37:14;8.45;;;4.72;;
47749;SDS011;49810;48.160;10.812;2023-02-01T12:39:46;17.60;;;8.40;;
47749;SDS011;49810;48.160;10.812;2023-02-01T12:42:18;11.55;;;5.95;;
47749;SDS011;49810;48.160;10.812;2023-02-01T12:44:48;10.63;;;6.05;;
47749;SDS011;49810;48.160;10.812;2023-02-01T12:47:19;11.48;;;5.47;;
47749;SDS011;49810;48.160;10.812;2023-02-01T12:49:50;10.25;;;5.35;;
47749;SDS011;49810;48.160;10.812;2023-02-01T12:52:23;10.50;;;4.93;;
47749;SDS011;49810;48.160;10.812;2023-02-01T12:54:53;10.55;;;5.43;;
47749;SDS011;49810;48.160;10.812;2023-02-01T12:57:23;11.13;;;5.38;;
47749;SDS011;49810;48.160;10.812;2023-02-01T12:59:54;8.57;;;5.38;;
47749;SDS011;49810;48.160;10.812;2023-02-01T13:02:25;8.82;;;5.03;;
47749;SDS011;49810;48.160;10.812;2023-02-01T13:04:58;8.40;;;5.00;;
47749;SDS011;49810;48.160;10.812;2023-02-01T13:07:33;9.35;;;3.92;;
47749;SDS011;49810;48.160;10.812;2023-02-01T13:10:03;9.65;;;5.07;;
47749;SDS011;49810;48.160;10.812;2023-02-01T13:12:34;10.07;;;4.25;;
47749;SDS011;49810;48.160;10.812;2023-02-01T13:15:05;8.18;;;4.90;;
47749;SDS011;49810;48.160;10.812;2023-02-01T13:17:37;8.07;;;4.55;;
47749;SDS011;49810;48.160;10.812;2023-02-01T13:20:10;9.18;;;4.90;;
47749;SDS011;49810;48.160;10.812;2023-02-01T13:22:45;9.13;;;4.55;;
47749;SDS011;49810;48.160;10.812;2023-02-01T13:25:15;9.68;;;4.90;;
47749;SDS011;49810;48.160;10.812;2023-02-01T13:27:44;8.98;;;5.13;;
47749;SDS011;49810;48.160;10.812;2023-02-01T13:30:13;10.82;;;5.05;;
47749;SDS011;49810;48.160;10.812;2023-02-01T13:32:54;9.73;;;5.68;;
47749;SDS011;49810;48.160;10.812;2023-02-01T13:35:55;8.75;;;4.45;;
47749;SDS011;49810;48.160;10.812;2023-02-01T13:41:19;8.50;;;4.00;;
47749;SDS011;49810;48.160;10.812;2023-02-01T13:43:51;10.32;;;4.50;;
47749;SDS011;49810;48.160;10.812;2023-02-01T13:46:20;12.40;;;5.18;;
47749;SDS011;49810;48.160;10.812;2023-02-01T13:48:49;9.07;;;4.75;;
47749;SDS011;49810;48.160;10.812;2023-02-01T13:51:18;11.10;;;5.47;;
47749;SDS011;49810;48.160;10.812;2023-02-01T13:53:56;7.68;;;3.80;;
47749;SDS011;49810;48.160;10.812;2023-02-01T13:56:25;13.05;;;5.43;;
47749;SDS011;49810;48.160;10.812;2023-02-01T13:58:53;11.70;;;5.13;;
47749;SDS011;49810;48.160;10.812;2023-02-01T14:01:32;9.63;;;4.43;;
47749;SDS011;49810;48.160;10.812;2023-02-01T14:04:01;10.60;;;5.15;;
47749;SDS011;49810;48.160;10.812;2023-02-01T14:06:42;9.00;;;4.15;;
47749;SDS011;49810;48.160;10.812;2023-02-01T14:09:18;9.32;;;3.08;;
47749;SDS011;49810;48.160;10.812;2023-02-01T14:11:48;11.07;;;3.35;;
47749;SDS011;49810;48.160;10.812;2023-02-01T14:22:50;6.95;;;3.65;;
47749;SDS011;49810;48.160;10.812;2023-02-01T14:25:17;9.98;;;4.63;;
47749;SDS011;49810;48.160;10.812;2023-02-01T14:27:47;9.48;;;3.92;;
47749;SDS011;49810;48.160;10.812;2023-02-01T14:30:15;8.20;;;4.53;;
47749;SDS011;49810;48.160;10.812;2023-02-01T14:32:43;9.60;;;3.92;;
47749;SDS011;49810;48.160;10.812;2023-02-01T14:35:17;10.15;;;3.65;;
47749;SDS011;49810;48.160;10.812;2023-02-01T14:37:46;8.52;;;4.05;;
47749;SDS011;49810;48.160;10.812;2023-02-01T14:40:15;10.05;;;4.68;;
47749;SDS011;49810;48.160;10.812;2023-02-01T14:42:47;9.57;;;3.63;;
47749;SDS011;49810;48.160;10.812;2023-02-01T14:51:01;10.27;;;2.97;;
47749;SDS011;49810;48.160;10.812;2023-02-01T14:53:31;10.93;;;2.90;;
47749;SDS011;49810;48.160;10.812;2023-02-01T14:56:04;10.57;;;3.60;;
47749;SDS011;49810;48.160;10.812;2023-02-01T14:58:36;10.88;;;4.25;;
47749;SDS011;49810;48.160;10.812;2023-02-01T15:01:15;10.98;;;4.63;;
47749;SDS011;49810;48.160;10.812;2023-02-01T15:03:46;11.85;;;3.95;;
47749;SDS011;49810;48.160;10.812;2023-02-01T15:06:20;13.15;;;5.43;;
47749;SDS011;49810;48.160;10.812;2023-02-01T15:08:48;10.55;;;4.60;;
47749;SDS011;49810;48.160;10.812;2023-02-01T15:11:16;7.93;;;3.08;;
47749;SDS011;49810;48.160;10.812;2023-02-01T15:13:49;8.70;;;3.30;;
47749;SDS011;49810;48.160;10.812;2023-02-01T15:16:20;10.55;;;3.78;;
47749;SDS011;49810;48.160;10.812;2023-02-01T15:18:49;15.52;;;6.47;;
47749;SDS011;49810;48.160;10.812;2023-02-01T15:21:18;11.65;;;4.57;;
47749;SDS011;49810;48.160;10.812;2023-02-01T15:24:09;25.15;;;9.02;;